Galveston, TX

4:41 AM CDT on August 27, 2014 (GMT -0500)
Scholes International At Galveston | Change Station
CLOSE
Current Station
Airport
Location: Galveston,
Elevation: 3 ft
Nearby Weather Stations

Elev 3 ft 29.27 °N, 94.86 °W | Updated 49 minutes ago

Mostly Cloudy
Mostly Cloudy
84 °F
Feels Like 91 °F
N
10
Wind Variable Wind from NE

Today
High -- | Low -- °F
--% Chance of Precip.
Yesterday
High -- | Low -- °F
Precip. -- in
6:54 AM 7:46 PM
Waxing Crescent, 3% visible
Pressure 29.93 in
Visibility 10.0 miles
Clouds Scattered Clouds 3400 ft
Mostly Cloudy 4300 ft
Heat Index 91 °F
Dew Point 73 °F
Humidity 70%
Rainfall 0.00 in
Snow Depth Not available.
UV 0 out of 12
Pollen 5.70 out of 12
Ozone Good
PM2.5 Moderate
Flu Activity Not available.
METAR KGLS 270852Z AUTO 05009KT 10SM SCT034 BKN043 29/23 A2993

More Conditions Fewer Conditions

Pressure 29.93 in
Visibility 10.0 miles
Clouds Scattered Clouds 3400 ft
Mostly Cloudy 4300 ft
Heat Index 91 °F
Dew Point 73 °F
Humidity 70%
Rainfall 0.00 in
Snow Depth Not available.
UV 0 out of 12
Pollen 5.70 out of 12
Ozone Good
PM2.5 Moderate
Flu Activity Not available.
METAR KGLS 270852Z AUTO 05009KT 10SM SCT034 BKN043 29/23 A2993

More Conditions Fewer Conditions

10-Day Weather Forecast

Almanac

Astronomy

Aug. 27, 2014 Rise Set
Actual Time 6:54 AM CDT 7:46 PM CDT
Civil Twilight 6:30 AM CDT 8:11 PM CDT
Nautical Twilight 6:01 AM CDT 8:39 PM CDT
Astronomical Twilight 5:31 AM CDT 9:09 PM CDT
Moon 8:39 AM CDT 8:53 PM CDT
Length of Visible Light 13h 41m
Length of Day
12h 52m
Tomorrow will be 1m 38s shorter.
Waxing Crescent, 3% of the Moon is Illuminated
Today
Waxing Crescent
Sep 2
First Quarter
Sep 8
Full
Sep 15
Last Quarter
Sep 24
New

Today's Extremes

State Highs State Lows

Community

WunderPhotos

Upload Photos

1,747,661 photos uploaded!

Nearby

Air Quality

  Air Quality AQ Index Pollutant
Yesterday Moderate
OZONE
Yesterday Moderate
PM2.5
Current Moderate
PM2.5
Current Good
OZONE
Wednesday Moderate
OZONE
Wednesday Good
PM10
Thursday Good
OZONE
Thursday Good
PM10
Friday Good
OZONE
Friday Good
PM10

Snow Depth

Station Depth Elevation
No new snow has been reported.

Earthquake Activity

City Distance Mag. Time & Date
No recent earthquake activity has been reported nearby.
Minimum magnitude displayed is 2.5.

Coastal Water Temperatures

Place Temperature
Eagle Point, TX 87.1 °F
USCG Freeport, TX 86.0 °F
Galveston Pier TX 87.1 °F
Galveston Bay (North Jetty), TX 86.0 °F
Rollover Pass, TX 82.0 °F

Nearby Weather Stations